Terminal Aerodrome Forecast
Issued by NWS Sterling, VA

Current Version | Previous Version | Text Only | Print | Product List | Glossary Off
Versions: 1 2 3 4 5 6 7 8 9 10 11 12 13 14 15 16 17 18 19 20 21 22 23 24 25 26 27

000
FTUS41 KLWX 030958 AAB
TAFDCA
TAF AMD
KDCA 030958Z 0310/0406 03005KT 2SM BR BKN250
     FM031200 06004KT P6SM BKN150
     FM031600 11005KT P6SM BKN040
     FM032200 13006KT 5SM -SHRA OVC060
     FM040400 14006KT P6SM OVC060=

USA.gov is the U.S. government's official web portal to all federal, state and local government web resources and services.